createdAt,value
2018-10-03T00:01:13.782Z,102092.00
2018-10-03T00:03:42.222Z,102094.82
2018-10-03T00:06:10.722Z,102106.00
2018-10-03T00:08:39.376Z,102103.18
2018-10-03T00:11:07.987Z,102098.22
2018-10-03T00:13:36.396Z,102102.57
2018-10-03T00:16:04.919Z,102103.91
2018-10-03T00:18:33.375Z,102097.77
2018-10-03T00:21:01.902Z,102102.80
2018-10-03T00:23:30.388Z,102110.12
2018-10-03T00:25:59.798Z,102105.52
2018-10-03T00:28:28.237Z,102102.72
2018-10-03T00:30:56.710Z,102106.57
2018-10-03T00:33:25.787Z,102109.27
2018-10-03T00:35:54.248Z,102114.63
2018-10-03T00:38:22.703Z,102112.66
2018-10-03T00:40:51.546Z,102123.01
2018-10-03T00:43:19.968Z,102116.34
2018-10-03T00:45:48.530Z,102126.19
2018-10-03T00:48:17.497Z,102121.86
2018-10-03T00:50:45.969Z,102130.38
2018-10-03T00:53:14.391Z,102127.72
2018-10-03T00:55:42.912Z,102134.70
2018-10-03T00:58:11.387Z,102135.06
2018-10-03T01:00:39.844Z,102134.06
2018-10-03T01:03:08.346Z,102135.05
2018-10-03T01:05:36.846Z,102146.55
2018-10-03T01:08:05.304Z,102143.39
2018-10-03T01:10:33.785Z,102142.06
2018-10-03T01:13:02.298Z,102152.37
2018-10-03T01:15:30.815Z,102153.21
2018-10-03T01:17:59.348Z,102162.19
2018-10-03T01:20:27.822Z,102160.86
2018-10-03T01:22:56.982Z,102167.52
2018-10-03T01:25:25.658Z,102163.20
2018-10-03T01:27:54.182Z,102166.04
2018-10-03T01:30:22.678Z,102171.84
2018-10-03T01:32:51.165Z,102169.52
2018-10-03T01:35:19.683Z,102171.86
2018-10-03T01:37:48.583Z,102174.67
2018-10-03T01:40:17.077Z,102174.17
2018-10-03T01:42:45.554Z,102176.37
2018-10-03T01:45:14.436Z,102177.33
2018-10-03T01:47:42.972Z,102175.34
2018-10-03T01:50:11.511Z,102170.20
2018-10-03T01:52:40.271Z,102175.84
2018-10-03T01:55:08.817Z,102173.52
2018-10-03T01:57:37.281Z,102171.70
2018-10-03T02:00:06.081Z,102179.19
2018-10-03T02:02:34.574Z,102183.19
2018-10-03T02:05:03.122Z,102195.67
2018-10-03T02:07:31.703Z,102205.98
2018-10-03T02:10:00.314Z,102210.83
2018-10-03T02:12:28.823Z,102213.81
2018-10-03T02:14:57.292Z,102210.81
2018-10-03T02:17:25.785Z,102212.32
2018-10-03T02:19:54.223Z,102216.63
2018-10-03T02:22:23.013Z,102221.47
2018-10-03T02:24:51.550Z,102219.28
2018-10-03T02:27:20.105Z,102222.59
2018-10-03T02:29:48.642Z,102234.03
2018-10-03T02:32:17.155Z,102245.18
2018-10-03T02:34:45.645Z,102249.98
2018-10-03T02:37:14.088Z,102237.34
2018-10-03T02:39:42.587Z,102240.49
2018-10-03T02:42:11.024Z,102238.00
2018-10-03T02:44:39.454Z,102237.83
2018-10-03T02:47:07.932Z,102247.64
2018-10-03T02:49:36.460Z,102255.14
2018-10-03T02:52:05.042Z,102258.78
2018-10-03T02:54:33.510Z,102260.11
2018-10-03T02:57:02.019Z,102262.11
2018-10-03T02:59:30.522Z,102255.97
2018-10-03T03:01:59.088Z,102258.66
2018-10-03T03:04:28.023Z,102249.52
2018-10-03T03:06:56.483Z,102246.33
2018-10-03T03:09:24.949Z,102248.19
2018-10-03T03:11:53.693Z,102251.66
2018-10-03T03:14:22.187Z,102264.31
2018-10-03T03:16:50.622Z,102262.98
2018-10-03T03:19:19.548Z,102261.16
2018-10-03T03:21:48.031Z,102263.47
2018-10-03T03:24:16.514Z,102268.97
2018-10-03T03:26:45.005Z,102264.94
2018-10-03T03:29:13.542Z,102264.10
2018-10-03T03:31:42.050Z,102273.56
2018-10-03T03:34:10.553Z,102286.87
2018-10-03T03:36:39.019Z,102279.02
2018-10-03T03:39:08.428Z,102287.63
2018-10-03T03:41:37.035Z,102295.61
2018-10-03T03:44:05.559Z,102296.09
2018-10-03T03:46:34.046Z,102296.89
2018-10-03T03:49:02.522Z,102294.55
2018-10-03T03:51:32.035Z,102298.05
2018-10-03T03:54:00.570Z,102301.87
2018-10-03T03:56:29.034Z,102314.02
2018-10-03T03:58:57.855Z,102311.22
2018-10-03T04:01:26.297Z,102323.02
2018-10-03T04:03:55.023Z,102320.54
2018-10-03T04:06:23.520Z,102323.73
2018-10-03T04:08:52.061Z,102320.41
2018-10-03T04:11:20.569Z,102324.09
2018-10-03T04:13:49.104Z,102330.57
2018-10-03T04:16:17.906Z,102337.58
2018-10-03T04:18:46.410Z,102341.39
2018-10-03T04:21:14.873Z,102347.56
2018-10-03T04:23:43.673Z,102346.40
2018-10-03T04:26:12.815Z,102345.06
2018-10-03T04:28:41.282Z,102347.73
2018-10-03T04:31:10.259Z,102354.38
2018-10-03T04:33:38.890Z,102355.22
2018-10-03T04:36:07.595Z,102355.85
2018-10-03T04:38:36.285Z,102360.33
2018-10-03T04:41:05.748Z,102366.13
2018-10-03T04:43:34.264Z,102368.91
2018-10-03T04:46:02.805Z,102376.88
2018-10-03T04:48:36.089Z,102384.16
2018-10-03T04:51:05.298Z,102377.68
2018-10-03T04:53:33.869Z,102381.31
2018-10-03T04:56:02.391Z,102376.00
2018-10-03T04:58:30.959Z,102382.81
2018-10-03T05:00:59.568Z,102382.81
2018-10-03T05:03:28.186Z,102382.28
2018-10-03T05:05:57.012Z,102377.12
2018-10-03T05:08:25.730Z,102377.08
2018-10-03T05:10:54.390Z,102376.58
2018-10-03T05:13:23.055Z,102365.57
2018-10-03T05:15:51.626Z,102367.34
2018-10-03T05:18:20.545Z,102365.50
2018-10-03T05:20:49.181Z,102367.27
2018-10-03T05:23:17.858Z,102368.58
2018-10-03T05:25:46.628Z,102368.70
2018-10-03T05:28:15.538Z,102373.47
2018-10-03T05:30:44.154Z,102382.94
2018-10-03T05:33:12.942Z,102390.08
2018-10-03T05:35:41.525Z,102392.06
2018-10-03T05:38:10.281Z,102401.85
2018-10-03T05:40:39.305Z,102412.78
2018-10-03T05:43:07.977Z,102420.44
2018-10-03T05:45:36.599Z,102423.58
2018-10-03T05:48:05.239Z,102436.03
2018-10-03T05:50:33.820Z,102430.58
2018-10-03T05:53:02.462Z,102420.46
2018-10-03T05:55:31.014Z,102419.48
2018-10-03T05:57:59.591Z,102421.66
2018-10-03T06:00:28.370Z,102421.49
2018-10-03T06:02:58.236Z,102421.98
2018-10-03T06:05:27.281Z,102431.16
2018-10-03T06:07:55.793Z,102424.83
2018-10-03T06:10:24.428Z,102427.97
2018-10-03T06:12:53.328Z,102430.50
2018-10-03T06:15:22.681Z,102431.47
2018-10-03T06:17:51.941Z,102438.77
2018-10-03T06:20:22.702Z,102456.34
2018-10-03T06:22:51.288Z,102458.81
2018-10-03T06:25:22.014Z,102463.64
2018-10-03T06:27:50.709Z,102471.45
2018-10-03T06:30:19.259Z,102468.86
2018-10-03T06:32:47.919Z,102485.88
2018-10-03T06:35:17.343Z,102483.95
2018-10-03T06:37:46.695Z,102480.70
2018-10-03T06:40:15.701Z,102476.08
2018-10-03T06:42:44.856Z,102481.97
2018-10-03T06:45:13.756Z,102490.84
2018-10-03T06:47:42.542Z,102490.08
2018-10-03T06:50:11.730Z,102499.77
2018-10-03T06:52:41.242Z,102502.31
2018-10-03T06:55:10.112Z,102505.53
2018-10-03T06:57:38.753Z,102518.74
2018-10-03T07:00:07.462Z,102516.33
2018-10-03T07:02:36.202Z,102528.39
2018-10-03T07:05:05.569Z,102526.90
2018-10-03T07:07:34.326Z,102529.14
2018-10-03T07:10:03.442Z,102535.69
2018-10-03T07:12:32.162Z,102538.09
2018-10-03T07:15:00.908Z,102541.16
2018-10-03T07:17:29.643Z,102548.71
2018-10-03T07:19:59.104Z,102555.23
2018-10-03T07:22:27.723Z,102557.62
2018-10-03T07:24:56.977Z,102564.16
2018-10-03T07:27:25.861Z,102573.03
2018-10-03T07:29:54.843Z,102582.89
2018-10-03T07:32:24.024Z,102585.23
2018-10-03T07:34:52.627Z,102577.09
2018-10-03T07:37:23.456Z,102592.66
2018-10-03T07:39:52.218Z,102595.18
2018-10-03T07:45:07.913Z,102592.89
2018-10-03T07:47:37.598Z,102596.22
2018-10-03T07:50:07.374Z,102603.60
2018-10-03T07:52:36.958Z,102603.58
2018-10-03T07:55:07.220Z,102615.30
2018-10-03T07:57:35.907Z,102621.47
2018-10-03T08:00:05.398Z,102621.28
2018-10-03T08:02:34.368Z,102624.14
2018-10-03T08:05:02.990Z,102623.80
